sensor_id;sensor_type;location;lat;lon;timestamp;pressure;altitude;pressure_sealevel;temperature;humidity
73220;BME280;61434;43.538;-5.688;2022-12-18T00:02:04;101693.97;;;10.75;76.19
73220;BME280;61434;43.538;-5.688;2022-12-18T00:04:29;101690.63;;;10.72;76.70
73220;BME280;61434;43.538;-5.688;2022-12-18T00:06:55;101683.59;;;10.82;76.57
73220;BME280;61434;43.538;-5.688;2022-12-18T00:09:20;101679.94;;;10.96;75.87
73220;BME280;61434;43.538;-5.688;2022-12-18T00:11:46;101674.88;;;10.91;76.12
73220;BME280;61434;43.538;-5.688;2022-12-18T00:14:13;101670.66;;;10.87;75.89
73220;BME280;61434;43.538;-5.688;2022-12-18T00:16:39;101673.34;;;10.87;75.91
73220;BME280;61434;43.538;-5.688;2022-12-18T00:19:05;101680.38;;;11.02;75.61
73220;BME280;61434;43.538;-5.688;2022-12-18T00:21:31;101680.50;;;10.75;75.81
73220;BME280;61434;43.538;-5.688;2022-12-18T00:23:58;101673.69;;;10.83;75.38
73220;BME280;61434;43.538;-5.688;2022-12-18T00:26:27;101670.91;;;10.71;75.67
73220;BME280;61434;43.538;-5.688;2022-12-18T00:28:53;101663.91;;;10.69;75.55
73220;BME280;61434;43.538;-5.688;2022-12-18T00:31:21;101659.16;;;10.60;75.88
73220;BME280;61434;43.538;-5.688;2022-12-18T00:33:47;101658.19;;;10.73;75.70
73220;BME280;61434;43.538;-5.688;2022-12-18T00:36:16;101660.44;;;10.79;75.26
73220;BME280;61434;43.538;-5.688;2022-12-18T00:38:42;101651.59;;;10.77;75.43
73220;BME280;61434;43.538;-5.688;2022-12-18T00:41:11;101646.44;;;10.62;76.01
73220;BME280;61434;43.538;-5.688;2022-12-18T00:43:37;101637.72;;;10.71;75.53
73220;BME280;61434;43.538;-5.688;2022-12-18T00:46:03;101633.94;;;10.73;74.63
73220;BME280;61434;43.538;-5.688;2022-12-18T00:48:29;101628.19;;;10.91;74.78
73220;BME280;61434;43.538;-5.688;2022-12-18T00:50:55;101618.44;;;10.64;74.69
73220;BME280;61434;43.538;-5.688;2022-12-18T00:53:21;101627.47;;;10.63;74.79
73220;BME280;61434;43.538;-5.688;2022-12-18T00:55:46;101623.81;;;10.64;74.71
73220;BME280;61434;43.538;-5.688;2022-12-18T00:58:14;101626.84;;;10.47;74.92
73220;BME280;61434;43.538;-5.688;2022-12-18T01:00:41;101623.28;;;10.59;74.44
73220;BME280;61434;43.538;-5.688;2022-12-18T01:03:07;101612.81;;;10.67;74.29
73220;BME280;61434;43.538;-5.688;2022-12-18T01:05:33;101616.56;;;10.77;73.62
73220;BME280;61434;43.538;-5.688;2022-12-18T01:07:59;101614.88;;;10.64;73.98
73220;BME280;61434;43.538;-5.688;2022-12-18T01:10:25;101614.56;;;10.68;74.11
73220;BME280;61434;43.538;-5.688;2022-12-18T01:12:51;101618.97;;;10.69;73.83
73220;BME280;61434;43.538;-5.688;2022-12-18T01:15:17;101625.53;;;10.65;73.74
73220;BME280;61434;43.538;-5.688;2022-12-18T01:17:43;101631.78;;;10.53;73.95
73220;BME280;61434;43.538;-5.688;2022-12-18T01:20:10;101626.00;;;10.59;74.36
73220;BME280;61434;43.538;-5.688;2022-12-18T01:22:36;101625.44;;;10.54;74.24
73220;BME280;61434;43.538;-5.688;2022-12-18T01:25:03;101621.66;;;10.44;74.20
73220;BME280;61434;43.538;-5.688;2022-12-18T01:27:29;101620.16;;;10.65;73.92
73220;BME280;61434;43.538;-5.688;2022-12-18T01:29:55;101625.66;;;10.64;73.38
73220;BME280;61434;43.538;-5.688;2022-12-18T01:32:20;101624.78;;;10.63;73.63
73220;BME280;61434;43.538;-5.688;2022-12-18T01:34:47;101611.97;;;10.28;74.35
73220;BME280;61434;43.538;-5.688;2022-12-18T01:37:12;101619.50;;;10.49;74.37
73220;BME280;61434;43.538;-5.688;2022-12-18T01:39:38;101624.25;;;10.33;74.31
73220;BME280;61434;43.538;-5.688;2022-12-18T01:42:10;101626.31;;;10.42;74.17
73220;BME280;61434;43.538;-5.688;2022-12-18T01:47:48;101625.97;;;10.46;73.97
73220;BME280;61434;43.538;-5.688;2022-12-18T01:50:34;101631.81;;;10.40;73.79
73220;BME280;61434;43.538;-5.688;2022-12-18T01:53:14;101624.59;;;10.41;74.01
73220;BME280;61434;43.538;-5.688;2022-12-18T01:55:47;101621.78;;;10.42;73.46
73220;BME280;61434;43.538;-5.688;2022-12-18T01:58:13;101618.44;;;10.39;73.41
73220;BME280;61434;43.538;-5.688;2022-12-18T02:00:39;101637.41;;;10.37;73.21
73220;BME280;61434;43.538;-5.688;2022-12-18T02:03:05;101637.84;;;10.31;73.18
73220;BME280;61434;43.538;-5.688;2022-12-18T02:05:40;101637.84;;;10.31;73.06
73220;BME280;61434;43.538;-5.688;2022-12-18T02:08:23;101643.06;;;10.07;74.44
73220;BME280;61434;43.538;-5.688;2022-12-18T02:11:06;101647.22;;;10.25;73.52
73220;BME280;61434;43.538;-5.688;2022-12-18T02:16:21;101636.59;;;10.10;73.30
73220;BME280;61434;43.538;-5.688;2022-12-18T02:18:55;101648.63;;;10.04;73.58
73220;BME280;61434;43.538;-5.688;2022-12-18T02:21:45;101665.56;;;10.19;73.21
73220;BME280;61434;43.538;-5.688;2022-12-18T02:24:29;101655.91;;;10.29;72.89
73220;BME280;61434;43.538;-5.688;2022-12-18T02:26:59;101642.69;;;10.26;72.75
73220;BME280;61434;43.538;-5.688;2022-12-18T02:29:34;101639.44;;;10.34;72.07
73220;BME280;61434;43.538;-5.688;2022-12-18T02:32:04;101646.66;;;10.33;72.37
73220;BME280;61434;43.538;-5.688;2022-12-18T02:34:32;101648.34;;;10.21;72.41
73220;BME280;61434;43.538;-5.688;2022-12-18T02:37:03;101649.66;;;10.28;72.43
73220;BME280;61434;43.538;-5.688;2022-12-18T02:39:32;101645.13;;;10.29;72.35
73220;BME280;61434;43.538;-5.688;2022-12-18T02:41:59;101642.50;;;10.15;72.66
73220;BME280;61434;43.538;-5.688;2022-12-18T02:44:27;101637.88;;;10.04;72.63
73220;BME280;61434;43.538;-5.688;2022-12-18T02:46:53;101645.78;;;10.33;72.29
73220;BME280;61434;43.538;-5.688;2022-12-18T02:52:00;101646.59;;;10.20;72.18
73220;BME280;61434;43.538;-5.688;2022-12-18T02:56:55;101631.66;;;10.16;72.72
73220;BME280;61434;43.538;-5.688;2022-12-18T03:00:00;101638.31;;;10.23;72.09
73220;BME280;61434;43.538;-5.688;2022-12-18T03:02:35;101631.41;;;10.19;72.40
73220;BME280;61434;43.538;-5.688;2022-12-18T03:07:42;101614.00;;;10.25;72.27
73220;BME280;61434;43.538;-5.688;2022-12-18T03:10:14;101618.94;;;10.18;71.98
73220;BME280;61434;43.538;-5.688;2022-12-18T03:12:48;101610.88;;;10.44;71.65
73220;BME280;61434;43.538;-5.688;2022-12-18T03:15:19;101601.53;;;10.37;71.55
73220;BME280;61434;43.538;-5.688;2022-12-18T03:17:52;101604.66;;;10.31;71.86
73220;BME280;61434;43.538;-5.688;2022-12-18T03:20:22;101604.44;;;10.46;71.05
73220;BME280;61434;43.538;-5.688;2022-12-18T03:22:54;101598.84;;;10.24;71.40
73220;BME280;61434;43.538;-5.688;2022-12-18T03:25:24;101598.91;;;10.22;71.12
73220;BME280;61434;43.538;-5.688;2022-12-18T03:27:55;101598.06;;;10.35;70.89
73220;BME280;61434;43.538;-5.688;2022-12-18T03:30:23;101601.63;;;10.48;70.52
73220;BME280;61434;43.538;-5.688;2022-12-18T03:32:58;101595.06;;;10.26;70.53
73220;BME280;61434;43.538;-5.688;2022-12-18T03:35:31;101596.22;;;10.10;71.46
73220;BME280;61434;43.538;-5.688;2022-12-18T03:37:58;101577.59;;;10.19;71.33
73220;BME280;61434;43.538;-5.688;2022-12-18T03:40:31;101573.22;;;10.31;71.16
73220;BME280;61434;43.538;-5.688;2022-12-18T03:43:16;101571.50;;;10.30;70.85
73220;BME280;61434;43.538;-5.688;2022-12-18T03:45:51;101575.66;;;10.09;71.44
73220;BME280;61434;43.538;-5.688;2022-12-18T03:50:56;101561.53;;;10.18;71.46
73220;BME280;61434;43.538;-5.688;2022-12-18T03:55:51;101540.25;;;10.27;70.36
73220;BME280;61434;43.538;-5.688;2022-12-18T03:58:21;101547.88;;;10.34;70.68
73220;BME280;61434;43.538;-5.688;2022-12-18T04:00:49;101546.28;;;10.31;71.01
73220;BME280;61434;43.538;-5.688;2022-12-18T04:03:18;101552.22;;;10.36;70.36
73220;BME280;61434;43.538;-5.688;2022-12-18T04:05:45;101549.19;;;10.28;70.29
73220;BME280;61434;43.538;-5.688;2022-12-18T04:08:13;101543.56;;;10.06;71.17
73220;BME280;61434;43.538;-5.688;2022-12-18T04:10:39;101532.59;;;9.83;72.02
73220;BME280;61434;43.538;-5.688;2022-12-18T04:13:04;101534.84;;;10.02;71.87
73220;BME280;61434;43.538;-5.688;2022-12-18T04:15:33;101530.13;;;9.93;71.91
73220;BME280;61434;43.538;-5.688;2022-12-18T04:17:59;101533.34;;;9.98;71.57
73220;BME280;61434;43.538;-5.688;2022-12-18T04:20:25;101534.41;;;10.08;71.34
73220;BME280;61434;43.538;-5.688;2022-12-18T04:22:51;101537.19;;;10.19;70.60
73220;BME280;61434;43.538;-5.688;2022-12-18T04:25:16;101528.50;;;9.77;71.28
73220;BME280;61434;43.538;-5.688;2022-12-18T04:27:42;101519.13;;;9.96;71.70
73220;BME280;61434;43.538;-5.688;2022-12-18T04:30:08;101502.75;;;9.99;70.93
73220;BME280;61434;43.538;-5.688;2022-12-18T04:32:34;101506.00;;;10.04;70.68
73220;BME280;61434;43.538;-5.688;2022-12-18T04:34:59;101505.22;;;10.15;70.67
73220;BME280;61434;43.538;-5.688;2022-12-18T04:37:25;101509.97;;;9.98;70.69
73220;BME280;61434;43.538;-5.688;2022-12-18T04:39:50;101521.50;;;10.13;70.00
73220;BME280;61434;43.538;-5.688;2022-12-18T04:42:16;101522.16;;;10.17;70.14
73220;BME280;61434;43.538;-5.688;2022-12-18T04:44:41;101528.06;;;10.09;70.52
73220;BME280;61434;43.538;-5.688;2022-12-18T04:47:07;101528.94;;;9.97;71.01
73220;BME280;61434;43.538;-5.688;2022-12-18T04:49:32;101533.00;;;9.90;71.04
73220;BME280;61434;43.538;-5.688;2022-12-18T04:51:58;101529.47;;;10.02;70.89
73220;BME280;61434;43.538;-5.688;2022-12-18T04:54:23;101527.19;;;9.83;71.41
73220;BME280;61434;43.538;-5.688;2022-12-18T04:56:49;101530.22;;;10.04;71.47
73220;BME280;61434;43.538;-5.688;2022-12-18T04:59:14;101523.22;;;10.01;70.79
73220;BME280;61434;43.538;-5.688;2022-12-18T05:01:40;101525.34;;;9.96;71.15
73220;BME280;61434;43.538;-5.688;2022-12-18T05:04:05;101525.78;;;9.90;70.90
73220;BME280;61434;43.538;-5.688;2022-12-18T05:06:31;101524.38;;;9.72;71.63
73220;BME280;61434;43.538;-5.688;2022-12-18T05:08:56;101517.06;;;9.99;71.39
73220;BME280;61434;43.538;-5.688;2022-12-18T05:11:22;101515.56;;;9.95;71.00
73220;BME280;61434;43.538;-5.688;2022-12-18T05:13:47;101517.28;;;10.09;70.44
73220;BME280;61434;43.538;-5.688;2022-12-18T05:16:14;101518.38;;;9.94;70.25
73220;BME280;61434;43.538;-5.688;2022-12-18T05:18:39;101520.53;;;9.89;69.98
73220;BME280;61434;43.538;-5.688;2022-12-18T05:21:05;101522.34;;;9.88;70.56
73220;BME280;61434;43.538;-5.688;2022-12-18T05:23:35;101520.44;;;9.77;70.79
73220;BME280;61434;43.538;-5.688;2022-12-18T05:26:03;101516.88;;;9.90;70.72
73220;BME280;61434;43.538;-5.688;2022-12-18T05:28:31;101522.78;;;10.08;70.15
73220;BME280;61434;43.538;-5.688;2022-12-18T05:30:59;101519.34;;;9.93;70.35
73220;BME280;61434;43.538;-5.688;2022-12-18T05:33:26;101516.31;;;10.10;70.46
73220;BME280;61434;43.538;-5.688;2022-12-18T05:35:57;101527.00;;;10.24;70.12
73220;BME280;61434;43.538;-5.688;2022-12-18T05:38:24;101537.13;;;10.34;69.58
73220;BME280;61434;43.538;-5.688;2022-12-18T05:40:51;101540.56;;;10.36;69.20
73220;BME280;61434;43.538;-5.688;2022-12-18T05:43:18;101547.22;;;10.43;68.68
73220;BME280;61434;43.538;-5.688;2022-12-18T05:45:44;101544.78;;;10.27;68.79
73220;BME280;61434;43.538;-5.688;2022-12-18T05:48:13;101537.97;;;10.34;69.02
73220;BME280;61434;43.538;-5.688;2022-12-18T05:50:40;101534.22;;;10.24;69.52
73220;BME280;61434;43.538;-5.688;2022-12-18T05:53:06;101519.53;;;10.15;69.76
73220;BME280;61434;43.538;-5.688;2022-12-18T05:55:36;101523.34;;;10.25;69.43
73220;BME280;61434;43.538;-5.688;2022-12-18T05:58:03;101519.97;;;10.35;69.27
73220;BME280;61434;43.538;-5.688;2022-12-18T06:00:29;101525.94;;;10.40;69.29
73220;BME280;61434;43.538;-5.688;2022-12-18T06:02:55;101531.31;;;10.40;69.11
73220;BME280;61434;43.538;-5.688;2022-12-18T06:05:21;101527.63;;;10.41;69.26
73220;BME280;61434;43.538;-5.688;2022-12-18T06:07:46;101533.22;;;10.12;69.60
73220;BME280;61434;43.538;-5.688;2022-12-18T06:10:12;101534.31;;;10.22;69.43
73220;BME280;61434;43.538;-5.688;2022-12-18T06:12:37;101536.25;;;10.33;68.92
73220;BME280;61434;43.538;-5.688;2022-12-18T06:15:03;101531.94;;;10.05;69.56
73220;BME280;61434;43.538;-5.688;2022-12-18T06:17:33;101528.91;;;10.22;69.45
73220;BME280;61434;43.538;-5.688;2022-12-18T06:19:59;101520.31;;;10.17;69.68
73220;BME280;61434;43.538;-5.688;2022-12-18T06:22:24;101523.00;;;10.05;70.04
73220;BME280;61434;43.538;-5.688;2022-12-18T06:24:50;101515.69;;;9.94;70.19
73220;BME280;61434;43.538;-5.688;2022-12-18T06:27:15;101522.03;;;9.93;70.77
73220;BME280;61434;43.538;-5.688;2022-12-18T06:29:41;101514.28;;;10.14;69.53
73220;BME280;61434;43.538;-5.688;2022-12-18T06:32:06;101519.66;;;10.01;69.62
73220;BME280;61434;43.538;-5.688;2022-12-18T06:34:33;101524.19;;;10.13;69.58
73220;BME280;61434;43.538;-5.688;2022-12-18T06:36:58;101513.31;;;10.27;69.04
73220;BME280;61434;43.538;-5.688;2022-12-18T06:39:24;101514.94;;;10.17;69.14
73220;BME280;61434;43.538;-5.688;2022-12-18T06:41:50;101515.91;;;10.16;68.99
73220;BME280;61434;43.538;-5.688;2022-12-18T06:44:15;101510.59;;;10.15;69.20
73220;BME280;61434;43.538;-5.688;2022-12-18T06:46:41;101514.28;;;10.14;69.34
73220;BME280;61434;43.538;-5.688;2022-12-18T06:49:06;101511.91;;;10.09;69.68
73220;BME280;61434;43.538;-5.688;2022-12-18T06:51:32;101512.88;;;10.08;69.89
73220;BME280;61434;43.538;-5.688;2022-12-18T06:53:57;101508.03;;;10.13;69.57
73220;BME280;61434;43.538;-5.688;2022-12-18T06:56:23;101508.16;;;10.12;69.18
73220;BME280;61434;43.538;-5.688;2022-12-18T06:58:48;101506.06;;;10.15;69.38
73220;BME280;61434;43.538;-5.688;2022-12-18T07:01:14;101512.00;;;10.20;69.15
73220;BME280;61434;43.538;-5.688;2022-12-18T07:03:40;101522.91;;;10.32;69.41
73220;BME280;61434;43.538;-5.688;2022-12-18T07:06:06;101518.25;;;10.34;68.62
73220;BME280;61434;43.538;-5.688;2022-12-18T07:08:32;101516.41;;;10.47;68.71
73220;BME280;61434;43.538;-5.688;2022-12-18T07:10:57;101519.44;;;10.42;68.56
73220;BME280;61434;43.538;-5.688;2022-12-18T07:13:23;101521.94;;;10.33;69.37
73220;BME280;61434;43.538;-5.688;2022-12-18T07:15:49;101525.06;;;10.26;69.34
73220;BME280;61434;43.538;-5.688;2022-12-18T07:18:15;101534.22;;;10.37;69.37
73220;BME280;61434;43.538;-5.688;2022-12-18T07:20:40;101521.53;;;10.26;69.73
73220;BME280;61434;43.538;-5.688;2022-12-18T07:23:06;101523.88;;;10.31;69.59
73220;BME280;61434;43.538;-5.688;2022-12-18T07:25:35;101525.22;;;10.49;69.02
73220;BME280;61434;43.538;-5.688;2022-12-18T07:28:01;101514.19;;;10.41;69.30
73220;BME280;61434;43.538;-5.688;2022-12-18T07:30:26;101523.97;;;10.42;69.47
73220;BME280;61434;43.538;-5.688;2022-12-18T07:32:52;101525.16;;;10.38;69.68
73220;BME280;61434;43.538;-5.688;2022-12-18T07:35:17;101524.19;;;10.39;70.22
73220;BME280;61434;43.538;-5.688;2022-12-18T07:37:44;101528.38;;;10.43;69.96
73220;BME280;61434;43.538;-5.688;2022-12-18T07:40:10;101522.47;;;10.38;70.28
73220;BME280;61434;43.538;-5.688;2022-12-18T07:42:35;101524.28;;;10.50;70.10
73220;BME280;61434;43.538;-5.688;2022-12-18T07:45:03;101524.75;;;10.68;69.08
73220;BME280;61434;43.538;-5.688;2022-12-18T07:47:29;101520.50;;;10.52;69.73
73220;BME280;61434;43.538;-5.688;2022-12-18T07:49:54;101518.97;;;10.61;69.56
73220;BME280;61434;43.538;-5.688;2022-12-18T07:52:20;101515.22;;;10.64;69.85
73220;BME280;61434;43.538;-5.688;2022-12-18T07:54:46;101527.59;;;10.53;70.04
73220;BME280;61434;43.538;-5.688;2022-12-18T07:57:14;101527.84;;;10.50;70.27
73220;BME280;61434;43.538;-5.688;2022-12-18T07:59:39;101521.25;;;10.55;69.72
73220;BME280;61434;43.538;-5.688;2022-12-18T08:02:05;101523.03;;;10.67;69.07
73220;BME280;61434;43.538;-5.688;2022-12-18T08:04:31;101522.25;;;10.77;68.91
73220;BME280;61434;43.538;-5.688;2022-12-18T08:06:56;101528.06;;;10.84;69.02
73220;BME280;61434;43.538;-5.688;2022-12-18T08:09:21;101529.25;;;10.80;68.95
73220;BME280;61434;43.538;-5.688;2022-12-18T08:11:47;101527.47;;;10.92;68.13
73220;BME280;61434;43.538;-5.688;2022-12-18T08:14:12;101519.56;;;11.01;68.12
73220;BME280;61434;43.538;-5.688;2022-12-18T08:16:39;101528.59;;;10.89;68.90
73220;BME280;61434;43.538;-5.688;2022-12-18T08:19:05;101534.81;;;11.02;68.23
73220;BME280;61434;43.538;-5.688;2022-12-18T08:21:31;101526.06;;;10.99;69.03
73220;BME280;61434;43.538;-5.688;2022-12-18T08:24:00;101524.09;;;11.01;68.32
73220;BME280;61434;43.538;-5.688;2022-12-18T08:26:28;101530.88;;;11.07;68.28
73220;BME280;61434;43.538;-5.688;2022-12-18T08:28:55;101527.66;;;11.01;69.08
73220;BME280;61434;43.538;-5.688;2022-12-18T08:31:21;101531.75;;;11.07;69.04
73220;BME280;61434;43.538;-5.688;2022-12-18T08:33:51;101525.72;;;11.27;67.88
73220;BME280;61434;43.538;-5.688;2022-12-18T08:36:18;101518.84;;;11.23;68.21
73220;BME280;61434;43.538;-5.688;2022-12-18T08:38:44;101516.94;;;11.37;67.67
73220;BME280;61434;43.538;-5.688;2022-12-18T08:41:13;101518.03;;;11.34;67.65
73220;BME280;61434;43.538;-5.688;2022-12-18T08:43:39;101528.19;;;11.66;66.86
73220;BME280;61434;43.538;-5.688;2022-12-18T08:46:25;101532.22;;;11.84;66.42
73220;BME280;61434;43.538;-5.688;2022-12-18T08:48:52;101525.78;;;11.74;66.51
73220;BME280;61434;43.538;-5.688;2022-12-18T08:51:18;101530.28;;;11.73;66.75
73220;BME280;61434;43.538;-5.688;2022-12-18T08:53:44;101521.72;;;11.79;66.17
73220;BME280;61434;43.538;-5.688;2022-12-18T08:56:10;101533.63;;;11.77;66.41
73220;BME280;61434;43.538;-5.688;2022-12-18T08:58:35;101531.09;;;11.87;65.47
73220;BME280;61434;43.538;-5.688;2022-12-18T09:01:05;101537.00;;;11.92;65.86
73220;BME280;61434;43.538;-5.688;2022-12-18T09:03:31;101548.91;;;12.00;65.70
73220;BME280;61434;43.538;-5.688;2022-12-18T09:05:57;101554.31;;;12.00;66.24
73220;BME280;61434;43.538;-5.688;2022-12-18T09:08:23;101553.84;;;12.18;66.03
73220;BME280;61434;43.538;-5.688;2022-12-18T09:10:50;101548.56;;;12.05;67.22
73220;BME280;61434;43.538;-5.688;2022-12-18T09:13:16;101549.81;;;12.23;66.53
73220;BME280;61434;43.538;-5.688;2022-12-18T09:15:43;101551.78;;;12.32;67.15
73220;BME280;61434;43.538;-5.688;2022-12-18T09:18:10;101547.72;;;12.61;65.74
73220;BME280;61434;43.538;-5.688;2022-12-18T09:20:37;101545.63;;;12.64;65.61
73220;BME280;61434;43.538;-5.688;2022-12-18T09:23:03;101540.19;;;12.87;65.30
73220;BME280;61434;43.538;-5.688;2022-12-18T09:25:29;101535.34;;;13.01;64.03
73220;BME280;61434;43.538;-5.688;2022-12-18T09:28:09;101544.09;;;13.05;64.59
73220;BME280;61434;43.538;-5.688;2022-12-18T09:30:40;101542.16;;;13.39;63.14
73220;BME280;61434;43.538;-5.688;2022-12-18T09:33:06;101551.09;;;15.44;58.75
73220;BME280;61434;43.538;-5.688;2022-12-18T09:35:32;101549.59;;;18.69;49.54
73220;BME280;61434;43.538;-5.688;2022-12-18T09:37:58;101564.09;;;20.98;42.68
73220;BME280;61434;43.538;-5.688;2022-12-18T09:40:25;101566.06;;;20.17;43.66
73220;BME280;61434;43.538;-5.688;2022-12-18T09:42:56;101575.31;;;22.93;37.46
73220;BME280;61434;43.538;-5.688;2022-12-18T09:45:23;101577.66;;;21.31;39.56
73220;BME280;61434;43.538;-5.688;2022-12-18T09:47:50;101581.56;;;22.05;38.42
73220;BME280;61434;43.538;-5.688;2022-12-18T09:50:28;101581.38;;;23.03;36.97
73220;BME280;61434;43.538;-5.688;2022-12-18T09:52:58;101575.50;;;21.49;39.62
73220;BME280;61434;43.538;-5.688;2022-12-18T09:55:37;101569.09;;;21.25;40.17
73220;BME280;61434;43.538;-5.688;2022-12-18T10:00:55;101581.91;;;22.25;38.67
73220;BME280;61434;43.538;-5.688;2022-12-18T10:03:21;101572.81;;;21.87;38.37
73220;BME280;61434;43.538;-5.688;2022-12-18T10:05:56;101582.47;;;19.68;43.85
73220;BME280;61434;43.538;-5.688;2022-12-18T10:14:09;101581.88;;;18.82;46.14
73220;BME280;61434;43.538;-5.688;2022-12-18T10:20:30;101574.66;;;16.96;52.03
73220;BME280;61434;43.538;-5.688;2022-12-18T10:25:15;101578.56;;;16.46;53.90
73220;BME280;61434;43.538;-5.688;2022-12-18T10:27:42;101577.56;;;16.00;56.27
73220;BME280;61434;43.538;-5.688;2022-12-18T10:30:16;101565.28;;;15.67;58.36
73220;BME280;61434;43.538;-5.688;2022-12-18T10:32:42;101553.56;;;15.86;58.17
73220;BME280;61434;43.538;-5.688;2022-12-18T10:35:25;101545.53;;;15.84;58.87
73220;BME280;61434;43.538;-5.688;2022-12-18T10:38:20;101554.97;;;15.71;59.19
73220;BME280;61434;43.538;-5.688;2022-12-18T10:43:24;101535.84;;;15.72;59.43
73220;BME280;61434;43.538;-5.688;2022-12-18T10:48:28;101522.22;;;16.01;58.40
73220;BME280;61434;43.538;-5.688;2022-12-18T10:50:54;101527.78;;;15.90;58.81
73220;BME280;61434;43.538;-5.688;2022-12-18T10:53:23;101523.09;;;15.92;58.42
73220;BME280;61434;43.538;-5.688;2022-12-18T10:55:49;101527.50;;;15.93;58.67
73220;BME280;61434;43.538;-5.688;2022-12-18T10:58:24;101533.53;;;15.87;58.39
73220;BME280;61434;43.538;-5.688;2022-12-18T11:01:12;101530.47;;;16.00;57.60
73220;BME280;61434;43.538;-5.688;2022-12-18T11:03:44;101541.75;;;16.24;56.45
73220;BME280;61434;43.538;-5.688;2022-12-18T11:06:14;101541.28;;;16.29;55.82
73220;BME280;61434;43.538;-5.688;2022-12-18T11:08:42;101539.19;;;16.13;56.15
73220;BME280;61434;43.538;-5.688;2022-12-18T11:11:21;101540.31;;;16.20;55.38
73220;BME280;61434;43.538;-5.688;2022-12-18T11:14:04;101537.75;;;16.09;55.63
73220;BME280;61434;43.538;-5.688;2022-12-18T11:16:35;101525.28;;;16.26;55.39
73220;BME280;61434;43.538;-5.688;2022-12-18T11:21:46;101512.09;;;16.31;56.62
73220;BME280;61434;43.538;-5.688;2022-12-18T11:24:39;101510.63;;;16.36;56.66
73220;BME280;61434;43.538;-5.688;2022-12-18T11:27:15;101497.31;;;16.33;57.01
73220;BME280;61434;43.538;-5.688;2022-12-18T11:29:42;101501.06;;;16.32;57.39
73220;BME280;61434;43.538;-5.688;2022-12-18T11:34:53;101510.22;;;16.31;57.54
73220;BME280;61434;43.538;-5.688;2022-12-18T11:37:19;101506.81;;;16.29;57.75
73220;BME280;61434;43.538;-5.688;2022-12-18T11:39:58;101513.78;;;16.32;58.19
73220;BME280;61434;43.538;-5.688;2022-12-18T11:42:46;101512.75;;;16.42;58.03
73220;BME280;61434;43.538;-5.688;2022-12-18T11:45:28;101507.44;;;16.51;57.88
73220;BME280;61434;43.538;-5.688;2022-12-18T11:50:56;101466.50;;;16.70;56.73
73220;BME280;61434;43.538;-5.688;2022-12-18T11:53:24;101463.38;;;16.75;56.18
73220;BME280;61434;43.538;-5.688;2022-12-18T12:04:35;101485.06;;;16.29;59.67
73220;BME280;61434;43.538;-5.688;2022-12-18T12:07:22;101498.63;;;16.39;59.84
73220;BME280;61434;43.538;-5.688;2022-12-18T12:15:50;101472.22;;;16.22;60.04
73220;BME280;61434;43.538;-5.688;2022-12-18T12:32:30;101446.09;;;16.11;60.89
73220;BME280;61434;43.538;-5.688;2022-12-18T12:35:19;101434.31;;;16.20;59.61
73220;BME280;61434;43.538;-5.688;2022-12-18T12:38:05;101427.97;;;16.29;58.96
73220;BME280;61434;43.538;-5.688;2022-12-18T12:40:36;101419.06;;;16.37;58.30
73220;BME280;61434;43.538;-5.688;2022-12-18T12:51:01;101402.88;;;16.63;54.68
73220;BME280;61434;43.538;-5.688;2022-12-18T12:53:31;101404.13;;;16.68;54.25
73220;BME280;61434;43.538;-5.688;2022-12-18T12:55:59;101401.13;;;16.62;54.36
73220;BME280;61434;43.538;-5.688;2022-12-18T13:01:32;101405.81;;;16.70;53.11
73220;BME280;61434;43.538;-5.688;2022-12-18T13:07:00;101401.28;;;16.88;51.04
73220;BME280;61434;43.538;-5.688;2022-12-18T13:09:33;101382.31;;;16.78;51.80
73220;BME280;61434;43.538;-5.688;2022-12-18T13:12:04;101380.91;;;16.74;52.17
73220;BME280;61434;43.538;-5.688;2022-12-18T13:14:49;101375.22;;;16.67;54.02
73220;BME280;61434;43.538;-5.688;2022-12-18T13:17:29;101382.09;;;16.62;53.75
73220;BME280;61434;43.538;-5.688;2022-12-18T13:20:12;101382.66;;;16.65;53.05
73220;BME280;61434;43.538;-5.688;2022-12-18T13:25:29;101375.50;;;16.64;52.64
73220;BME280;61434;43.538;-5.688;2022-12-18T13:28:10;101366.63;;;16.72;51.62
73220;BME280;61434;43.538;-5.688;2022-12-18T13:36:04;101355.78;;;16.80;51.10
73220;BME280;61434;43.538;-5.688;2022-12-18T13:38:36;101360.16;;;16.73;51.39
73220;BME280;61434;43.538;-5.688;2022-12-18T13:43:43;101367.75;;;16.70;52.03
73220;BME280;61434;43.538;-5.688;2022-12-18T13:46:21;101376.63;;;16.72;51.61
73220;BME280;61434;43.538;-5.688;2022-12-18T13:49:00;101370.72;;;16.76;50.67
73220;BME280;61434;43.538;-5.688;2022-12-18T13:51:28;101371.50;;;16.86;49.52
73220;BME280;61434;43.538;-5.688;2022-12-18T13:53:59;101361.00;;;16.91;48.98
73220;BME280;61434;43.538;-5.688;2022-12-18T13:56:33;101354.47;;;16.84;50.19
73220;BME280;61434;43.538;-5.688;2022-12-18T13:59:25;101355.09;;;16.78;50.66
73220;BME280;61434;43.538;-5.688;2022-12-18T14:01:56;101352.38;;;16.78;50.82
73220;BME280;61434;43.538;-5.688;2022-12-18T14:04:29;101347.06;;;16.77;51.23
73220;BME280;61434;43.538;-5.688;2022-12-18T14:07:04;101341.81;;;16.75;51.57
73220;BME280;61434;43.538;-5.688;2022-12-18T14:09:39;101345.94;;;16.79;50.83
73220;BME280;61434;43.538;-5.688;2022-12-18T14:12:05;101347.25;;;16.75;51.02
73220;BME280;61434;43.538;-5.688;2022-12-18T14:14:51;101346.22;;;16.76;50.36
73220;BME280;61434;43.538;-5.688;2022-12-18T14:17:17;101341.16;;;16.81;49.54
73220;BME280;61434;43.538;-5.688;2022-12-18T14:19:45;101341.13;;;16.73;49.57
73220;BME280;61434;43.538;-5.688;2022-12-18T14:22:17;101340.78;;;16.76;49.04
73220;BME280;61434;43.538;-5.688;2022-12-18T14:24:43;101333.56;;;16.85;48.11
73220;BME280;61434;43.538;-5.688;2022-12-18T14:27:26;101317.22;;;16.85;47.59
73220;BME280;61434;43.538;-5.688;2022-12-18T14:29:52;101339.25;;;16.91;47.48
73220;BME280;61434;43.538;-5.688;2022-12-18T14:32:19;101335.44;;;16.84;47.62